createdAt,value
2019-03-25T00:01:15.952Z,91.40
2019-03-25T00:03:49.590Z,91.50
2019-03-25T00:06:22.702Z,91.10
2019-03-25T00:09:05.039Z,91.40
2019-03-25T00:11:30.829Z,90.80
2019-03-25T00:14:03.994Z,91.60
2019-03-25T00:16:37.105Z,91.00
2019-03-25T00:19:11.855Z,90.90
2019-03-25T00:21:44.516Z,91.20
2019-03-25T00:24:18.025Z,90.90
2019-03-25T00:26:51.244Z,90.60
2019-03-25T00:29:24.980Z,90.40
2019-03-25T00:31:57.947Z,90.40
2019-03-25T00:34:31.992Z,90.30
2019-03-25T00:37:05.204Z,90.80
2019-03-25T00:39:39.340Z,90.80
2019-03-25T00:42:12.604Z,90.80
2019-03-25T00:44:46.842Z,90.50
2019-03-25T00:47:19.814Z,90.50
2019-03-25T00:49:55.867Z,90.30
2019-03-25T00:52:29.090Z,90.40
2019-03-25T00:55:03.745Z,90.40
2019-03-25T00:57:36.677Z,89.90
2019-03-25T01:00:10.964Z,89.50
2019-03-25T01:02:43.874Z,90.10
2019-03-25T01:05:17.210Z,90.00
2019-03-25T01:07:52.459Z,90.00
2019-03-25T01:10:24.682Z,90.20
2019-03-25T01:12:57.586Z,89.50
2019-03-25T01:15:31.284Z,89.10
2019-03-25T01:18:04.417Z,89.30
2019-03-25T01:20:38.066Z,89.50
2019-03-25T01:23:11.008Z,88.80
2019-03-25T01:25:44.489Z,89.30
2019-03-25T01:28:17.373Z,89.10
2019-03-25T01:30:50.982Z,89.50
2019-03-25T01:33:24.009Z,88.70
2019-03-25T01:35:57.576Z,88.80
2019-03-25T01:38:30.524Z,87.70
2019-03-25T01:41:03.859Z,88.10
2019-03-25T01:43:36.974Z,87.30
2019-03-25T01:46:10.444Z,87.60
2019-03-25T01:48:47.189Z,87.30
2019-03-25T01:51:21.220Z,86.80
2019-03-25T01:53:54.309Z,85.70
2019-03-25T01:56:27.624Z,85.70
2019-03-25T01:59:00.631Z,85.70
2019-03-25T02:01:34.216Z,85.20
2019-03-25T02:04:07.476Z,84.70
2019-03-25T02:06:41.087Z,84.70
2019-03-25T02:09:14.545Z,85.10
2019-03-25T02:11:49.072Z,84.70
2019-03-25T02:14:23.443Z,85.20
2019-03-25T02:16:57.032Z,84.50
2019-03-25T02:19:47.054Z,84.50
2019-03-25T02:22:20.863Z,84.30
2019-03-25T02:24:53.976Z,84.30
2019-03-25T02:27:27.700Z,83.40
2019-03-25T02:30:01.103Z,83.70
2019-03-25T02:32:34.522Z,83.00
2019-03-25T02:35:07.838Z,83.10
2019-03-25T02:37:41.475Z,83.60
2019-03-25T02:40:14.905Z,82.40
2019-03-25T02:42:48.332Z,82.80
2019-03-25T02:45:21.689Z,82.00
2019-03-25T02:47:56.925Z,81.70
2019-03-25T02:50:30.537Z,80.90
2019-03-25T02:53:04.517Z,80.40
2019-03-25T02:55:42.112Z,80.40
2019-03-25T02:58:12.672Z,79.80
2019-03-25T03:00:45.795Z,79.20
2019-03-25T03:03:19.485Z,78.80
2019-03-25T03:05:52.494Z,79.40
2019-03-25T03:08:25.855Z,79.10
2019-03-25T03:10:58.909Z,78.40
2019-03-25T03:13:32.337Z,78.10
2019-03-25T03:16:05.588Z,78.40
2019-03-25T03:18:38.593Z,77.90
2019-03-25T03:21:11.877Z,77.70
2019-03-25T03:23:45.453Z,77.90
2019-03-25T03:26:18.460Z,76.70
2019-03-25T03:28:51.816Z,76.20
2019-03-25T03:31:25.404Z,76.70
2019-03-25T03:33:59.218Z,76.10
2019-03-25T03:36:32.379Z,75.80
2019-03-25T03:39:07.064Z,75.60
2019-03-25T03:41:40.502Z,75.70
2019-03-25T03:44:13.884Z,76.10
2019-03-25T03:46:47.098Z,75.50
2019-03-25T03:49:20.482Z,75.70
2019-03-25T03:51:54.737Z,75.20
2019-03-25T03:54:28.495Z,75.00
2019-03-25T03:57:01.844Z,75.50
2019-03-25T03:59:35.198Z,75.40
2019-03-25T04:02:08.359Z,74.50
2019-03-25T04:04:42.058Z,75.10
2019-03-25T04:07:19.832Z,75.60
2019-03-25T04:09:54.546Z,75.30
2019-03-25T04:12:27.621Z,75.20
2019-03-25T04:15:01.135Z,75.30
2019-03-25T04:17:34.368Z,74.80
2019-03-25T04:20:12.276Z,75.10
2019-03-25T04:22:45.482Z,75.40
2019-03-25T04:25:20.195Z,74.90
2019-03-25T04:27:58.742Z,75.50
2019-03-25T04:30:31.088Z,75.80
2019-03-25T04:33:09.742Z,75.90
2019-03-25T04:35:42.186Z,76.10
2019-03-25T04:38:15.477Z,75.90
2019-03-25T04:40:53.184Z,75.80
2019-03-25T04:43:26.374Z,75.90
2019-03-25T04:46:00.155Z,76.60
2019-03-25T04:48:33.405Z,76.00
2019-03-25T04:51:07.150Z,76.10
2019-03-25T04:53:40.961Z,76.50
2019-03-25T04:56:14.970Z,76.40
2019-03-25T04:59:07.932Z,76.30
2019-03-25T05:01:41.343Z,76.40
2019-03-25T05:04:14.439Z,76.80
2019-03-25T05:06:47.806Z,76.40
2019-03-25T05:09:21.372Z,76.40
2019-03-25T05:11:54.502Z,76.60
2019-03-25T05:14:30.399Z,76.60
2019-03-25T05:17:08.933Z,76.40
2019-03-25T05:19:42.195Z,76.40
2019-03-25T05:22:16.189Z,76.30
2019-03-25T05:24:53.295Z,76.10
2019-03-25T05:27:30.779Z,76.20
2019-03-25T05:30:04.279Z,75.40
2019-03-25T05:32:37.558Z,75.90
2019-03-25T05:35:14.119Z,76.20
2019-03-25T05:37:47.443Z,75.90
2019-03-25T05:40:20.830Z,76.10
2019-03-25T05:42:54.678Z,76.00
2019-03-25T05:45:27.847Z,75.80
2019-03-25T05:48:02.296Z,75.20
2019-03-25T05:50:36.009Z,75.00
2019-03-25T05:53:09.371Z,74.50
2019-03-25T05:55:42.699Z,74.70
2019-03-25T05:58:16.325Z,74.60
2019-03-25T06:00:50.627Z,74.10
2019-03-25T06:03:24.582Z,73.50
2019-03-25T06:06:00.038Z,74.20
2019-03-25T06:08:34.742Z,74.20
2019-03-25T06:11:07.880Z,74.50
2019-03-25T06:13:42.985Z,74.50
2019-03-25T06:16:17.516Z,74.50
2019-03-25T06:18:51.009Z,74.50
2019-03-25T06:21:27.076Z,74.70
2019-03-25T06:24:00.737Z,74.90
2019-03-25T06:26:33.959Z,75.20
2019-03-25T06:29:07.005Z,75.00
2019-03-25T06:31:40.184Z,75.20
2019-03-25T06:34:17.143Z,75.70
2019-03-25T06:36:50.278Z,75.30
2019-03-25T06:39:25.319Z,75.50
2019-03-25T06:42:20.783Z,75.30
2019-03-25T06:44:54.647Z,75.60
2019-03-25T06:47:28.540Z,76.10
2019-03-25T06:50:05.325Z,76.70
2019-03-25T06:52:36.182Z,76.50
2019-03-25T06:55:10.429Z,76.70
2019-03-25T06:57:43.677Z,76.90
2019-03-25T07:00:17.507Z,77.20
2019-03-25T07:02:52.088Z,77.40
2019-03-25T07:05:30.279Z,77.30
2019-03-25T07:08:04.584Z,77.20
2019-03-25T07:10:40.741Z,77.50
2019-03-25T07:13:13.875Z,77.90
2019-03-25T07:16:03.326Z,77.70
2019-03-25T07:18:36.679Z,77.90
2019-03-25T07:21:09.989Z,78.60
2019-03-25T07:23:51.897Z,78.60
2019-03-25T07:26:28.617Z,79.00
2019-03-25T07:29:01.863Z,79.60
2019-03-25T07:31:36.470Z,79.80
2019-03-25T07:34:14.922Z,80.40
2019-03-25T07:36:56.941Z,80.30
2019-03-25T07:39:31.135Z,80.70
2019-03-25T07:42:09.897Z,80.50
2019-03-25T07:44:51.369Z,80.40
2019-03-25T07:47:41.421Z,80.40
2019-03-25T07:50:08.265Z,80.40
2019-03-25T07:52:44.638Z,81.40
2019-03-25T07:55:16.796Z,81.50
2019-03-25T07:57:51.321Z,81.20
2019-03-25T08:00:24.685Z,81.10
2019-03-25T08:02:58.419Z,80.50
2019-03-25T08:05:33.748Z,80.60
2019-03-25T08:08:08.821Z,80.00
2019-03-25T08:10:42.024Z,79.70
2019-03-25T08:13:15.460Z,79.40
2019-03-25T08:15:50.342Z,79.20
2019-03-25T08:18:24.190Z,79.10
2019-03-25T08:20:59.276Z,78.70
2019-03-25T08:23:32.925Z,79.10
2019-03-25T08:26:06.101Z,78.90
2019-03-25T08:28:56.695Z,80.10
2019-03-25T08:31:26.874Z,79.30
2019-03-25T08:34:00.124Z,79.30
2019-03-25T08:36:33.298Z,79.20
2019-03-25T08:39:06.659Z,79.40
2019-03-25T08:41:39.974Z,79.90
2019-03-25T08:44:13.577Z,79.70
2019-03-25T08:46:47.143Z,79.50
2019-03-25T08:49:20.756Z,79.50
2019-03-25T08:51:54.084Z,79.70
2019-03-25T08:54:27.450Z,79.80
2019-03-25T08:57:00.629Z,80.00
2019-03-25T08:59:34.178Z,80.50
2019-03-25T09:02:07.109Z,80.70
2019-03-25T09:04:40.544Z,81.00
2019-03-25T09:07:14.073Z,81.10
2019-03-25T09:09:47.825Z,81.10
2019-03-25T09:12:20.882Z,81.40
2019-03-25T09:15:01.841Z,81.40
2019-03-25T09:17:38.266Z,81.30
2019-03-25T09:20:12.768Z,81.70
2019-03-25T09:22:52.459Z,81.30
2019-03-25T09:25:27.263Z,81.40
2019-03-25T09:28:04.136Z,81.30
2019-03-25T09:30:58.168Z,81.40
2019-03-25T09:33:32.683Z,81.40
2019-03-25T09:36:07.796Z,81.40
2019-03-25T09:38:42.138Z,81.40
2019-03-25T09:41:15.656Z,81.60
2019-03-25T09:43:49.127Z,81.30
2019-03-25T09:46:23.134Z,81.70
2019-03-25T09:48:56.718Z,81.40
2019-03-25T09:51:30.208Z,81.30
2019-03-25T09:54:02.996Z,81.30
2019-03-25T09:56:36.842Z,81.10
2019-03-25T09:59:09.957Z,81.00
2019-03-25T10:01:47.282Z,81.30
2019-03-25T10:04:21.817Z,81.10
2019-03-25T10:06:55.436Z,81.30
2019-03-25T10:09:28.652Z,81.00
2019-03-25T10:12:02.549Z,81.20
2019-03-25T10:14:36.176Z,79.40
2019-03-25T10:17:09.505Z,79.20
2019-03-25T10:19:42.568Z,77.90
2019-03-25T10:22:35.899Z,77.90
2019-03-25T10:25:10.433Z,77.30
2019-03-25T10:27:44.261Z,77.90
2019-03-25T10:30:18.612Z,77.70
2019-03-25T10:32:52.479Z,78.10
2019-03-25T10:35:26.011Z,79.00
2019-03-25T10:38:19.720Z,79.90
2019-03-25T10:40:53.095Z,80.20
2019-03-25T10:43:26.338Z,78.60
2019-03-25T10:46:02.806Z,77.90
2019-03-25T10:48:36.525Z,77.20
2019-03-25T10:51:09.523Z,76.20
2019-03-25T10:54:02.449Z,76.00
2019-03-25T10:56:35.757Z,76.20
2019-03-25T10:59:09.269Z,76.50
2019-03-25T11:01:42.509Z,76.90
2019-03-25T11:04:16.018Z,78.30
2019-03-25T11:06:49.367Z,77.90
2019-03-25T11:09:23.416Z,77.20
2019-03-25T11:11:56.508Z,76.30
2019-03-25T11:14:29.806Z,75.10
2019-03-25T11:17:03.021Z,74.70
2019-03-25T11:19:36.386Z,77.60
2019-03-25T11:22:09.350Z,78.40
2019-03-25T11:24:42.718Z,79.80
2019-03-25T11:27:16.063Z,79.20
2019-03-25T11:29:49.561Z,79.90
2019-03-25T11:32:22.689Z,80.70
2019-03-25T11:34:56.428Z,80.20
2019-03-25T11:37:30.115Z,80.10
2019-03-25T11:40:04.375Z,80.50
2019-03-25T11:42:39.006Z,83.00
2019-03-25T11:45:12.512Z,85.60
2019-03-25T11:47:45.714Z,87.00
2019-03-25T11:50:19.565Z,90.10
2019-03-25T11:52:52.922Z,90.60
2019-03-25T11:55:26.472Z,90.80
2019-03-25T11:57:59.577Z,90.40
2019-03-25T12:00:33.046Z,90.60
2019-03-25T12:03:05.900Z,90.40
2019-03-25T12:05:40.733Z,90.60
2019-03-25T12:08:14.136Z,90.50
2019-03-25T12:10:47.479Z,90.60
2019-03-25T12:13:20.693Z,90.70
2019-03-25T12:15:54.176Z,90.20
2019-03-25T12:18:28.361Z,90.30
2019-03-25T12:21:01.705Z,90.20
2019-03-25T12:23:34.972Z,91.50
2019-03-25T12:26:08.204Z,91.00
2019-03-25T12:28:41.656Z,90.60
2019-03-25T12:31:15.201Z,90.90
2019-03-25T12:33:48.179Z,90.70
2019-03-25T12:36:22.414Z,91.00
2019-03-25T12:38:55.644Z,91.00
2019-03-25T12:41:28.915Z,90.60
2019-03-25T12:44:01.823Z,90.80
2019-03-25T12:46:35.288Z,90.40
2019-03-25T12:49:08.514Z,90.90
2019-03-25T12:51:41.804Z,91.10
2019-03-25T12:54:14.842Z,91.10
2019-03-25T12:56:48.408Z,90.80
2019-03-25T12:59:21.443Z,90.70
2019-03-25T13:01:55.803Z,90.70
2019-03-25T13:04:29.246Z,91.40
2019-03-25T13:07:02.623Z,91.40
2019-03-25T13:09:35.526Z,91.40
2019-03-25T13:12:08.805Z,91.40
2019-03-25T13:14:42.383Z,91.40
2019-03-25T13:17:15.749Z,90.90
2019-03-25T13:19:48.805Z,90.70
2019-03-25T13:22:22.277Z,91.00
2019-03-25T13:24:55.369Z,90.90
2019-03-25T13:27:28.860Z,90.80
2019-03-25T13:30:01.880Z,90.80
2019-03-25T13:32:35.758Z,90.90
2019-03-25T13:35:09.149Z,90.80
2019-03-25T13:37:42.468Z,91.10
2019-03-25T13:40:15.571Z,90.40
2019-03-25T13:42:48.899Z,90.20
2019-03-25T13:45:21.952Z,90.00
2019-03-25T13:47:55.525Z,90.00
2019-03-25T13:50:28.611Z,89.40
2019-03-25T13:53:01.742Z,88.70
2019-03-25T13:55:34.731Z,87.90
2019-03-25T13:58:08.093Z,87.50
2019-03-25T14:00:41.782Z,87.80
2019-03-25T14:03:15.679Z,87.20
2019-03-25T14:05:48.765Z,84.60
2019-03-25T14:08:22.112Z,84.70
2019-03-25T14:10:55.181Z,84.10
2019-03-25T14:13:28.461Z,82.40
2019-03-25T14:16:01.541Z,81.70
2019-03-25T14:18:34.799Z,82.40
2019-03-25T14:21:07.774Z,83.20
2019-03-25T14:23:41.218Z,78.10
2019-03-25T14:26:14.545Z,76.40
2019-03-25T14:28:47.725Z,75.60
2019-03-25T14:31:20.677Z,74.60
2019-03-25T14:33:53.945Z,73.80
2019-03-25T14:36:26.839Z,73.50
2019-03-25T14:39:00.113Z,72.60
2019-03-25T14:41:33.185Z,72.50
2019-03-25T14:44:06.896Z,72.00
2019-03-25T14:46:41.291Z,70.30
2019-03-25T14:49:14.528Z,69.70
2019-03-25T14:51:48.010Z,68.40
2019-03-25T14:54:21.915Z,68.50
2019-03-25T14:56:54.869Z,68.20
2019-03-25T14:59:28.257Z,67.30
2019-03-25T15:02:01.449Z,67.40
2019-03-25T15:04:34.572Z,65.90
2019-03-25T15:07:07.609Z,66.00
2019-03-25T15:09:41.112Z,64.70
2019-03-25T15:12:14.118Z,62.90
2019-03-25T15:14:47.662Z,64.00
2019-03-25T15:17:20.782Z,62.70
2019-03-25T15:19:53.991Z,62.90
2019-03-25T15:22:26.856Z,62.50
2019-03-25T15:24:59.978Z,63.80
2019-03-25T15:27:32.917Z,62.10
2019-03-25T15:30:06.223Z,62.60
2019-03-25T15:32:39.306Z,63.60
2019-03-25T15:35:12.534Z,62.70
2019-03-25T15:37:45.431Z,62.30
2019-03-25T15:40:18.571Z,62.00
2019-03-25T15:42:51.585Z,61.80
2019-03-25T15:45:25.059Z,61.70
2019-03-25T15:47:58.458Z,62.60
2019-03-25T15:50:32.141Z,62.40
2019-03-25T15:53:05.029Z,62.40
2019-03-25T15:55:38.911Z,63.80
2019-03-25T15:58:11.977Z,63.20
2019-03-25T16:00:47.923Z,62.40
2019-03-25T16:03:19.354Z,62.40
2019-03-25T16:05:53.253Z,62.40
2019-03-25T16:08:26.284Z,62.90
2019-03-25T16:10:59.274Z,63.80
2019-03-25T16:13:32.343Z,64.40
2019-03-25T16:16:05.793Z,63.90
2019-03-25T16:18:39.554Z,63.70
2019-03-25T16:21:12.910Z,63.60
2019-03-25T16:23:46.022Z,64.00
2019-03-25T16:26:20.196Z,63.20
2019-03-25T16:28:53.145Z,64.10
2019-03-25T16:31:26.337Z,64.10
2019-03-25T16:33:59.511Z,65.10
2019-03-25T16:36:32.739Z,64.90
2019-03-25T16:39:07.427Z,64.40
2019-03-25T16:41:40.709Z,64.70
2019-03-25T16:44:13.717Z,64.30
2019-03-25T16:46:47.006Z,64.30
2019-03-25T16:49:19.994Z,65.80
2019-03-25T16:51:53.019Z,66.00
2019-03-25T16:54:26.012Z,65.30
2019-03-25T16:56:59.407Z,65.20
2019-03-25T16:59:32.542Z,65.10
2019-03-25T17:02:09.786Z,65.80
2019-03-25T17:04:42.770Z,65.40
2019-03-25T17:07:16.848Z,66.20
2019-03-25T17:09:50.252Z,66.30
2019-03-25T17:12:23.535Z,66.90
2019-03-25T17:14:56.564Z,66.60
2019-03-25T17:17:29.896Z,66.50
2019-03-25T17:20:02.960Z,66.90
2019-03-25T17:22:36.236Z,67.50
2019-03-25T17:25:09.579Z,68.00
2019-03-25T17:27:43.097Z,67.10
2019-03-25T17:30:19.361Z,68.20
2019-03-25T17:32:52.441Z,67.30
2019-03-25T17:35:25.479Z,67.10
2019-03-25T17:37:59.194Z,68.00
2019-03-25T17:40:32.203Z,68.90
2019-03-25T17:43:05.516Z,67.10
2019-03-25T17:45:38.876Z,67.90
2019-03-25T17:48:12.243Z,67.80
2019-03-25T17:50:45.074Z,67.90
2019-03-25T17:53:18.422Z,68.70
2019-03-25T17:55:51.413Z,68.90
2019-03-25T17:58:24.785Z,68.40
2019-03-25T18:01:05.844Z,70.20
2019-03-25T18:03:39.684Z,70.00
2019-03-25T18:06:12.664Z,70.30
2019-03-25T18:08:45.707Z,70.30
2019-03-25T18:11:18.721Z,68.70
2019-03-25T18:13:51.960Z,69.10
2019-03-25T18:16:24.996Z,69.10
2019-03-25T18:18:58.120Z,69.30
2019-03-25T18:21:31.258Z,69.40
2019-03-25T18:24:05.336Z,69.70
2019-03-25T18:26:38.231Z,69.60
2019-03-25T18:29:11.654Z,69.30
2019-03-25T18:31:45.112Z,69.40
2019-03-25T18:34:18.396Z,69.60
2019-03-25T18:36:51.389Z,67.90
2019-03-25T18:39:24.641Z,69.60
2019-03-25T18:41:57.484Z,68.30
2019-03-25T18:44:31.381Z,68.30
2019-03-25T18:47:04.883Z,68.70
2019-03-25T18:49:38.296Z,69.70
2019-03-25T18:52:11.405Z,68.00
2019-03-25T18:54:44.765Z,67.90
2019-03-25T18:57:17.845Z,68.90
2019-03-25T18:59:51.035Z,67.70
2019-03-25T19:02:24.178Z,67.00
2019-03-25T19:04:57.405Z,67.30
2019-03-25T19:07:30.462Z,68.00
2019-03-25T19:10:03.579Z,66.90
2019-03-25T19:12:36.700Z,67.60
2019-03-25T19:15:10.521Z,67.00
2019-03-25T19:17:43.419Z,67.00
2019-03-25T19:20:16.778Z,67.60
2019-03-25T19:22:49.575Z,67.30
2019-03-25T19:25:22.681Z,66.70
2019-03-25T19:27:55.721Z,67.00
2019-03-25T19:30:29.514Z,65.30
2019-03-25T19:33:02.379Z,65.30
2019-03-25T19:35:36.164Z,65.50
2019-03-25T19:38:09.659Z,65.80
2019-03-25T19:40:43.255Z,66.70
2019-03-25T19:43:16.475Z,65.60
2019-03-25T19:45:50.159Z,66.20
2019-03-25T19:48:23.394Z,65.70
2019-03-25T19:50:56.773Z,66.70
2019-03-25T19:53:29.872Z,67.00
2019-03-25T19:56:05.627Z,66.80
2019-03-25T19:58:38.638Z,66.90
2019-03-25T20:01:11.877Z,65.60
2019-03-25T20:03:44.639Z,66.40
2019-03-25T20:06:26.029Z,66.40
2019-03-25T20:08:52.579Z,66.90
2019-03-25T20:11:25.754Z,67.40
2019-03-25T20:13:59.096Z,67.90
2019-03-25T20:16:35.150Z,67.00
2019-03-25T20:19:08.215Z,68.10
2019-03-25T20:21:42.109Z,67.30
2019-03-25T20:24:14.996Z,67.70
2019-03-25T20:26:48.708Z,67.00
2019-03-25T20:29:21.722Z,67.30
2019-03-25T20:31:55.132Z,66.90
2019-03-25T20:34:28.167Z,66.30
2019-03-25T20:37:01.546Z,67.00
2019-03-25T20:39:34.609Z,66.40
2019-03-25T20:42:08.027Z,66.10
2019-03-25T20:44:40.985Z,65.00
2019-03-25T20:47:14.238Z,64.30
2019-03-25T20:49:47.388Z,63.50
2019-03-25T20:52:20.750Z,61.70
2019-03-25T20:54:53.613Z,60.10
2019-03-25T20:57:26.933Z,60.30
2019-03-25T20:59:59.896Z,58.50
2019-03-25T21:02:44.425Z,58.00
2019-03-25T21:05:07.885Z,57.00
2019-03-25T21:07:42.096Z,58.20
2019-03-25T21:10:16.004Z,56.80
2019-03-25T21:12:49.132Z,56.30
2019-03-25T21:15:22.086Z,54.10
2019-03-25T21:17:55.764Z,54.70
2019-03-25T21:20:28.799Z,53.50
2019-03-25T21:23:02.800Z,53.20
2019-03-25T21:25:35.752Z,52.00
2019-03-25T21:28:08.955Z,51.90
2019-03-25T21:30:47.969Z,51.90
2019-03-25T21:33:18.627Z,51.90
2019-03-25T21:35:51.670Z,51.50
2019-03-25T21:38:25.221Z,51.00
2019-03-25T21:41:07.713Z,50.50
2019-03-25T21:43:40.877Z,50.80
2019-03-25T21:46:16.552Z,50.30
2019-03-25T21:48:50.077Z,50.40
2019-03-25T21:51:22.951Z,50.00
2019-03-25T21:53:56.271Z,49.40
2019-03-25T21:56:29.534Z,49.40
2019-03-25T21:59:03.648Z,50.00
2019-03-25T22:01:37.173Z,49.10
2019-03-25T22:04:10.407Z,49.20
2019-03-25T22:06:43.715Z,48.30
2019-03-25T22:09:18.488Z,47.70
2019-03-25T22:11:51.697Z,47.80
2019-03-25T22:14:25.131Z,47.60
2019-03-25T22:16:59.012Z,49.00
2019-03-25T22:19:32.537Z,50.30
2019-03-25T22:22:05.949Z,49.50
2019-03-25T22:24:39.138Z,50.40
2019-03-25T22:27:12.304Z,49.40
2019-03-25T22:29:45.409Z,50.50
2019-03-25T22:32:18.686Z,50.40
2019-03-25T22:34:51.757Z,49.70
2019-03-25T22:37:24.846Z,49.80
2019-03-25T22:39:59.187Z,49.80
2019-03-25T22:42:32.439Z,50.50
2019-03-25T22:45:06.196Z,49.50
2019-03-25T22:47:39.021Z,50.80
2019-03-25T22:50:13.176Z,50.20
2019-03-25T22:52:47.803Z,49.30
2019-03-25T22:55:23.319Z,50.60
2019-03-25T22:57:55.766Z,49.80
2019-03-25T23:00:30.501Z,50.80
2019-03-25T23:03:03.625Z,49.90
2019-03-25T23:05:37.094Z,50.50
2019-03-25T23:08:13.138Z,50.60
2019-03-25T23:10:46.176Z,49.70
2019-03-25T23:13:20.146Z,49.90
2019-03-25T23:15:53.552Z,48.90
2019-03-25T23:18:26.719Z,49.10
2019-03-25T23:20:59.983Z,48.50
2019-03-25T23:23:33.191Z,50.30
2019-03-25T23:26:06.560Z,48.50
2019-03-25T23:28:39.777Z,49.40
2019-03-25T23:31:13.402Z,48.30
2019-03-25T23:33:52.107Z,48.40
2019-03-25T23:36:21.252Z,48.30
2019-03-25T23:38:54.746Z,47.90
2019-03-25T23:41:28.170Z,48.40
2019-03-25T23:44:01.136Z,48.70
2019-03-25T23:46:34.645Z,48.90
2019-03-25T23:49:07.642Z,47.70
2019-03-25T23:51:40.961Z,47.70
2019-03-25T23:54:14.646Z,47.70
2019-03-25T23:56:48.072Z,47.00
2019-03-25T23:59:21.107Z,47.70
